Time;durP1;ratioP1;P1;durP2;ratioP2;P2;SDS_P1;SDS_P2;PMS_P1;PMS_P2;Temp;Humidity;BMP_temperature;BMP_pressure;BME280_temperature;BME280_humidity;BME280_pressure;Samples;Min_cycle;Max_cycle;Signal;HPM_P1;HPM_P2
2022/05/05 00:00:56;;;;;;;31.30;15.27;;;13.90;99.90;;;;;;5046973;28;20021;-74
2022/05/05 00:03:21;;;;;;;31.77;16.80;;;13.80;99.90;;;;;;5045866;28;20031;-74
2022/05/05 00:05:47;;;;;;;33.55;17.35;;;13.80;99.90;;;;;;5045172;28;20104;-74
2022/05/05 00:08:13;;;;;;;29.67;16.48;;;13.80;99.90;;;;;;5046842;28;20025;-74
2022/05/05 00:16:08;;;;;;;35.95;18.40;;;13.70;99.90;;;;;;5044913;28;20114;-74
2022/05/05 00:18:34;;;;;;;38.92;19.35;;;13.60;99.90;;;;;;5044520;28;20045;-74
2022/05/05 00:20:59;;;;;;;43.10;18.63;;;13.60;99.90;;;;;;5046202;28;20029;-74
2022/05/05 00:23:26;;;;;;;34.80;19.70;;;13.50;99.90;;;;;;5045669;28;20017;-74
2022/05/05 00:25:51;;;;;;;30.20;17.10;;;13.40;99.90;;;;;;5044098;28;20525;-74
2022/05/05 00:28:18;;;;;;;32.28;16.05;;;13.50;99.90;;;;;;5046425;28;20025;-74
2022/05/05 00:30:43;;;;;;;25.88;16.35;;;13.40;99.90;;;;;;5045303;28;20030;-74
2022/05/05 00:33:09;;;;;;;30.05;16.77;;;13.40;99.90;;;;;;5044527;28;20021;-75
2022/05/05 00:35:35;;;;;;;31.10;17.50;;;13.40;99.90;;;;;;5046325;28;20088;-75
2022/05/05 00:38:01;;;;;;;29.52;16.88;;;13.40;99.90;;;;;;5044550;28;20070;-75
2022/05/05 00:40:26;;;;;;;35.38;17.25;;;13.40;99.90;;;;;;5044491;28;20033;-75
2022/05/05 00:42:52;;;;;;;34.15;18.02;;;13.30;99.90;;;;;;5045983;28;20021;-75
2022/05/05 00:45:18;;;;;;;29.95;16.63;;;13.30;99.90;;;;;;5044218;28;20363;-74
2022/05/05 00:47:44;;;;;;;38.30;17.80;;;13.30;99.90;;;;;;5044999;28;20017;-74
2022/05/05 00:50:11;;;;;;;35.17;18.27;;;13.30;99.90;;;;;;5046032;28;20540;-75
2022/05/05 00:52:37;;;;;;;47.30;18.08;;;13.20;99.90;;;;;;5041213;28;20045;-75
2022/05/05 00:55:03;;;;;;;31.30;17.35;;;13.20;99.90;;;;;;5045046;28;20062;-75
2022/05/05 00:57:29;;;;;;;30.67;18.17;;;13.10;99.90;;;;;;5045518;28;20018;-75
2022/05/05 00:59:57;;;;;;;37.58;19.30;;;13.00;99.90;;;;;;5043799;28;20360;-75
2022/05/05 01:02:23;;;;;;;34.63;19.25;;;13.00;99.90;;;;;;5045250;28;20044;-75
2022/05/05 01:04:48;;;;;;;35.55;18.55;;;12.90;99.90;;;;;;5045334;28;20076;-75
2022/05/05 01:07:15;;;;;;;34.17;18.95;;;12.90;99.90;;;;;;5043692;28;20024;-75
2022/05/05 01:09:41;;;;;;;39.47;19.65;;;12.90;99.90;;;;;;5044975;28;20024;-75
2022/05/05 01:12:08;;;;;;;40.45;19.00;;;12.90;99.90;;;;;;5045156;28;20097;-75
2022/05/05 01:14:34;;;;;;;30.52;18.83;;;12.80;99.90;;;;;;5043762;28;20108;-75
2022/05/05 01:17:00;;;;;;;35.90;18.63;;;12.70;99.90;;;;;;5044982;28;20021;-75
2022/05/05 01:19:26;;;;;;;28.17;16.85;;;12.70;99.90;;;;;;5044622;28;20067;-75
2022/05/05 01:21:57;;;;;;;32.45;17.85;;;12.70;99.90;;;;;;5043402;28;20070;-75
2022/05/05 01:28:10;;;;;;;30.58;18.38;;;12.70;99.90;;;;;;5044714;28;20036;-75
2022/05/05 01:29:54;;;;;;;30.38;17.15;;;12.60;99.90;;;;;;5044576;28;20040;-76
2022/05/05 01:32:20;;;;;;;28.25;17.92;;;12.60;99.90;;;;;;5043676;28;20101;-75
2022/05/05 01:34:47;;;;;;;32.08;17.05;;;12.40;99.90;;;;;;5043993;28;20033;-75
2022/05/05 01:37:13;;;;;;;35.72;18.48;;;12.30;99.90;;;;;;5038047;28;20024;-75
2022/05/05 01:39:38;;;;;;;28.08;18.67;;;12.30;99.90;;;;;;5034959;28;20025;-75
2022/05/05 01:42:04;;;;;;;25.65;17.17;;;12.30;99.90;;;;;;5034895;28;20025;-75
2022/05/05 01:44:30;;;;;;;30.60;18.67;;;12.30;99.90;;;;;;5035009;28;20034;-75
2022/05/05 01:46:56;;;;;;;29.13;17.58;;;12.30;99.90;;;;;;5034946;28;20029;-75
2022/05/05 01:49:22;;;;;;;26.42;16.83;;;12.20;99.90;;;;;;5035012;28;20033;-75
2022/05/05 01:51:48;;;;;;;25.75;17.17;;;12.20;99.90;;;;;;5034552;28;20029;-75
2022/05/05 01:54:14;;;;;;;30.77;16.83;;;12.20;99.90;;;;;;5034892;28;20021;-75
2022/05/05 01:56:39;;;;;;;28.15;16.08;;;12.10;99.90;;;;;;5034485;28;20061;-75
2022/05/05 01:59:06;;;;;;;31.35;16.73;;;12.10;99.90;;;;;;5034947;28;20033;-76
2022/05/05 02:01:33;;;;;;;37.80;19.70;;;11.90;99.90;;;;;;5034739;28;20079;-76
2022/05/05 02:04:01;;;;;;;28.63;19.90;;;11.90;99.90;;;;;;5033798;28;20044;-76
2022/05/05 02:06:27;;;;;;;28.63;19.52;;;11.80;99.90;;;;;;5034412;28;20029;-76
2022/05/05 02:08:52;;;;;;;28.98;18.52;;;11.80;99.90;;;;;;5033981;28;20100;-76
2022/05/05 02:11:18;;;;;;;26.75;18.30;;;11.70;99.90;;;;;;5033736;28;20093;-75
2022/05/05 02:13:44;;;;;;;29.52;18.60;;;11.70;99.90;;;;;;5033828;28;20444;-76
2022/05/05 02:16:10;;;;;;;34.42;19.45;;;11.50;99.90;;;;;;5034241;28;20368;-76
2022/05/05 02:18:35;;;;;;;32.65;18.05;;;11.50;99.90;;;;;;5034622;28;20025;-76
2022/05/05 02:21:02;;;;;;;27.27;17.65;;;11.50;99.90;;;;;;5034713;28;20025;-76
2022/05/05 02:23:27;;;;;;;26.23;18.25;;;11.50;99.90;;;;;;5034441;28;20435;-76
2022/05/05 02:25:53;;;;;;;27.92;17.75;;;11.50;99.90;;;;;;5033796;28;20021;-75
2022/05/05 02:28:19;;;;;;;27.38;18.15;;;11.50;99.90;;;;;;5034253;28;20030;-76
2022/05/05 02:30:45;;;;;;;24.10;16.92;;;11.50;99.90;;;;;;5034455;28;20017;-76
2022/05/05 02:33:11;;;;;;;26.38;15.88;;;11.40;99.90;;;;;;5034065;28;20483;-76
2022/05/05 02:35:37;;;;;;;27.00;18.05;;;11.30;99.90;;;;;;5033916;28;20021;-76
2022/05/05 02:40:47;;;;;;;29.55;16.85;;;11.30;99.90;;;;;;5033809;28;20438;-76
2022/05/05 02:43:13;;;;;;;24.27;17.45;;;11.30;99.90;;;;;;5034055;28;20025;-75
2022/05/05 02:45:39;;;;;;;27.58;17.33;;;11.30;99.90;;;;;;5033829;28;20026;-75
2022/05/05 02:48:06;;;;;;;28.77;17.92;;;11.20;99.90;;;;;;5034164;28;20025;-75
2022/05/05 02:50:31;;;;;;;28.05;18.00;;;11.20;99.90;;;;;;5033243;28;20100;-76
2022/05/05 02:52:57;;;;;;;26.58;17.00;;;11.20;99.90;;;;;;5033234;28;20511;-75
2022/05/05 02:55:23;;;;;;;30.70;18.30;;;11.20;99.90;;;;;;5033343;28;20037;-75
2022/05/05 02:57:50;;;;;;;26.58;18.52;;;11.20;99.90;;;;;;5032830;28;20025;-75
2022/05/05 03:00:16;;;;;;;25.38;17.52;;;11.20;99.90;;;;;;5033554;28;20432;-75
2022/05/05 03:02:43;;;;;;;28.80;17.60;;;11.20;99.90;;;;;;5034026;28;20021;-75
2022/05/05 03:05:10;;;;;;;25.50;16.75;;;11.20;99.90;;;;;;5033455;28;20037;-76
2022/05/05 03:07:36;;;;;;;27.50;17.40;;;11.30;99.90;;;;;;5033814;28;20033;-75
2022/05/05 03:10:03;;;;;;;29.23;17.20;;;11.20;99.90;;;;;;5033792;28;20026;-76
2022/05/05 03:12:29;;;;;;;31.75;18.92;;;11.20;99.90;;;;;;5033670;28;20053;-76
2022/05/05 03:14:54;;;;;;;28.38;17.60;;;11.20;99.90;;;;;;5032684;28;20057;-76
2022/05/05 03:17:20;;;;;;;31.60;18.02;;;11.20;99.90;;;;;;5033025;28;20112;-76
2022/05/05 03:19:46;;;;;;;33.08;18.17;;;11.10;99.90;;;;;;5033666;28;20455;-76
2022/05/05 03:22:12;;;;;;;30.13;17.17;;;11.20;99.90;;;;;;5033966;28;20018;-75
2022/05/05 03:24:37;;;;;;;27.20;17.73;;;11.20;99.90;;;;;;5033561;28;20029;-76
2022/05/05 03:27:04;;;;;;;27.25;17.83;;;11.20;99.90;;;;;;5033358;28;20037;-76
2022/05/05 03:29:32;;;;;;;26.80;17.67;;;11.20;99.90;;;;;;5033494;28;20021;-75
2022/05/05 03:31:58;;;;;;;31.05;17.52;;;11.20;99.90;;;;;;5033417;28;20022;-76
2022/05/05 03:34:23;;;;;;;30.65;16.48;;;11.20;99.90;;;;;;5033598;28;20029;-75
2022/05/05 03:36:49;;;;;;;36.20;18.10;;;11.20;99.90;;;;;;5033810;28;20376;-76
2022/05/05 03:39:15;;;;;;;28.08;17.20;;;11.20;99.90;;;;;;5033471;28;20437;-76
2022/05/05 03:41:41;;;;;;;25.33;15.68;;;11.30;99.90;;;;;;5033204;28;20095;-76
2022/05/05 03:44:07;;;;;;;30.75;17.15;;;11.20;99.90;;;;;;5033135;28;20030;-76
2022/05/05 03:46:33;;;;;;;26.48;17.55;;;11.20;99.90;;;;;;5033052;28;20562;-75
2022/05/05 03:48:59;;;;;;;34.35;16.75;;;11.20;99.90;;;;;;5033123;28;20049;-75
2022/05/05 03:51:25;;;;;;;26.35;16.77;;;11.20;99.90;;;;;;5032940;28;20049;-75
2022/05/05 03:53:52;;;;;;;27.38;17.15;;;11.20;99.90;;;;;;5033348;28;20051;-75
2022/05/05 03:56:17;;;;;;;32.60;17.95;;;11.20;99.90;;;;;;5033373;28;20026;-75
2022/05/05 03:58:43;;;;;;;25.83;17.00;;;11.30;99.90;;;;;;5033335;28;20437;-75
2022/05/05 04:01:09;;;;;;;36.35;18.58;;;11.30;99.90;;;;;;5035189;28;20017;-76
2022/05/05 04:03:36;;;;;;;36.67;24.13;;;11.20;99.90;;;;;;5032943;28;20032;-76
2022/05/05 04:06:06;;;;;;;47.15;26.55;;;11.20;99.90;;;;;;5037238;28;20777;-76
2022/05/05 04:08:33;;;;;;;46.25;28.23;;;11.20;99.90;;;;;;5052827;28;20032;-76
2022/05/05 04:11:00;;;;;;;46.40;27.63;;;11.10;99.90;;;;;;5050315;28;20028;-76
2022/05/05 04:13:25;;;;;;;41.17;25.13;;;11.10;99.90;;;;;;5032723;28;20036;-75
2022/05/05 04:15:52;;;;;;;41.45;23.73;;;11.20;99.90;;;;;;5033336;28;20437;-75
2022/05/05 04:18:18;;;;;;;36.85;22.45;;;11.10;99.90;;;;;;5052699;28;20029;-76
2022/05/05 04:20:44;;;;;;;32.80;20.55;;;11.10;99.90;;;;;;5052855;28;20023;-76
2022/05/05 04:23:10;;;;;;;39.65;21.70;;;11.20;99.90;;;;;;5049452;28;20029;-76
2022/05/05 04:25:40;;;;;;;35.00;20.85;;;11.30;99.90;;;;;;5052980;28;20219;-75
2022/05/05 04:28:07;;;;;;;30.63;20.58;;;11.30;99.90;;;;;;5053107;28;20025;-76
2022/05/05 04:30:33;;;;;;;30.73;19.65;;;11.40;99.90;;;;;;5056313;28;20108;-76
2022/05/05 04:32:59;;;;;;;33.28;21.13;;;11.50;99.90;;;;;;5053332;28;20099;-76
2022/05/05 04:35:25;;;;;;;30.98;20.95;;;11.70;99.90;;;;;;5050691;28;20036;-76
2022/05/05 04:37:50;;;;;;;39.13;22.33;;;11.80;99.90;;;;;;5036714;28;20055;-75
2022/05/05 04:40:16;;;;;;;46.08;23.00;;;11.80;99.90;;;;;;5036519;28;20103;-75
2022/05/05 04:42:42;;;;;;;52.63;25.60;;;12.00;99.90;;;;;;5036886;28;20028;-75
2022/05/05 04:45:08;;;;;;;49.05;24.02;;;12.10;99.90;;;;;;5042427;28;20082;-76
2022/05/05 04:47:34;;;;;;;42.35;21.83;;;12.30;99.90;;;;;;5056459;28;20067;-75
2022/05/05 04:50:00;;;;;;;38.83;18.80;;;12.30;99.90;;;;;;5056577;28;20055;-76
2022/05/05 04:52:26;;;;;;;34.55;19.40;;;12.50;99.90;;;;;;5056085;28;20032;-76
2022/05/05 04:54:51;;;;;;;56.13;25.30;;;12.50;99.90;;;;;;5056477;28;20025;-76
2022/05/05 04:57:18;;;;;;;40.50;18.92;;;12.60;99.90;;;;;;5056116;28;20043;-75
2022/05/05 04:59:43;;;;;;;43.50;21.83;;;12.70;99.90;;;;;;5056231;28;20024;-76
2022/05/05 05:02:09;;;;;;;33.17;17.23;;;12.70;99.90;;;;;;5052311;28;20100;-76
2022/05/05 05:04:35;;;;;;;28.83;18.05;;;12.80;99.90;;;;;;5055736;28;20031;-76
2022/05/05 05:07:01;;;;;;;37.75;18.67;;;12.80;99.90;;;;;;5054784;28;20033;-75
2022/05/05 05:09:27;;;;;;;37.78;21.00;;;12.90;99.90;;;;;;5056221;28;20063;-76
2022/05/05 05:11:52;;;;;;;32.05;20.05;;;13.00;99.90;;;;;;5056061;28;20024;-75
2022/05/05 05:14:18;;;;;;;34.20;19.35;;;13.10;99.90;;;;;;5054348;28;20043;-75
2022/05/05 05:16:44;;;;;;;40.85;22.65;;;13.20;99.90;;;;;;5054969;28;20021;-75
2022/05/05 05:19:10;;;;;;;33.35;20.05;;;13.20;99.90;;;;;;5055732;28;20080;-76
2022/05/05 05:21:35;;;;;;;36.63;21.45;;;13.30;99.90;;;;;;5055433;28;20515;-76
2022/05/05 05:24:02;;;;;;;40.55;23.40;;;13.40;99.90;;;;;;5055579;28;20060;-75
2022/05/05 05:26:28;;;;;;;40.08;27.98;;;13.50;99.90;;;;;;5055854;28;20031;-75
2022/05/05 05:28:54;;;;;;;41.88;22.98;;;13.50;99.90;;;;;;5055776;28;20391;-75
2022/05/05 05:31:21;;;;;;;39.92;25.33;;;13.60;99.90;;;;;;5055275;28;20035;-75
2022/05/05 05:33:47;;;;;;;44.38;25.58;;;13.70;99.90;;;;;;5055913;28;20091;-75
2022/05/05 05:36:13;;;;;;;37.85;23.30;;;13.80;99.90;;;;;;5055389;28;20028;-75
2022/05/05 05:38:39;;;;;;;40.47;24.90;;;13.90;99.90;;;;;;5054217;28;20032;-75
2022/05/05 05:41:05;;;;;;;39.20;25.10;;;14.00;99.90;;;;;;5055004;28;20479;-75
2022/05/05 05:43:30;;;;;;;43.38;25.90;;;14.00;99.90;;;;;;5055669;28;20099;-75
2022/05/05 05:45:56;;;;;;;44.17;25.35;;;14.10;99.90;;;;;;5054968;28;20087;-75
2022/05/05 05:48:22;;;;;;;40.00;25.83;;;14.30;99.90;;;;;;5055183;28;20040;-75
2022/05/05 05:50:47;;;;;;;37.97;25.10;;;14.50;99.90;;;;;;5055428;28;20024;-75
2022/05/05 05:53:13;;;;;;;46.08;27.83;;;14.60;99.90;;;;;;5055067;28;20033;-75
2022/05/05 05:55:39;;;;;;;37.63;24.48;;;14.80;99.90;;;;;;5055174;28;20474;-75
2022/05/05 05:58:05;;;;;;;43.28;26.27;;;14.90;99.90;;;;;;5055049;28;20031;-75
2022/05/05 06:00:32;;;;;;;30.58;20.23;;;15.10;99.90;;;;;;5054651;28;20066;-75
2022/05/05 06:05:42;;;;;;;33.80;21.30;;;15.20;99.90;;;;;;5054759;28;20027;-75
2022/05/05 06:08:08;;;;;;;32.97;19.73;;;15.30;99.90;;;;;;5055365;28;20032;-75
2022/05/05 06:10:36;;;;;;;35.63;19.17;;;15.40;99.90;;;;;;5055142;28;20023;-75
2022/05/05 06:13:02;;;;;;;30.48;19.40;;;15.40;99.90;;;;;;5054718;28;20032;-76
2022/05/05 06:15:28;;;;;;;27.25;18.98;;;15.50;99.90;;;;;;5054981;28;20399;-76
2022/05/05 06:17:54;;;;;;;36.67;18.05;;;15.60;99.90;;;;;;5054672;28;20027;-76
2022/05/05 06:20:20;;;;;;;34.80;18.08;;;15.80;99.90;;;;;;5054499;28;20048;-76
2022/05/05 06:22:46;;;;;;;30.45;18.90;;;16.00;99.90;;;;;;5054278;28;20443;-76
2022/05/05 06:25:12;;;;;;;28.20;19.48;;;16.00;99.90;;;;;;5054717;28;20036;-76
2022/05/05 06:27:39;;;;;;;34.15;18.88;;;16.20;99.90;;;;;;5054440;28;20040;-75
2022/05/05 06:30:06;;;;;;;32.80;18.90;;;16.40;99.90;;;;;;5054505;28;20017;-75
2022/05/05 06:32:32;;;;;;;36.75;21.20;;;16.50;99.90;;;;;;5053436;28;20078;-75
2022/05/05 06:34:58;;;;;;;28.88;17.00;;;16.70;99.90;;;;;;5052822;28;20503;-75
2022/05/05 06:37:24;;;;;;;30.10;17.55;;;16.90;99.90;;;;;;5053820;28;20019;-75
2022/05/05 06:39:51;;;;;;;25.63;18.02;;;17.10;99.90;;;;;;5054088;28;20023;-75
2022/05/05 06:42:17;;;;;;;29.23;17.23;;;17.20;99.90;;;;;;5054224;28;20463;-76
2022/05/05 06:44:42;;;;;;;27.55;17.65;;;17.40;99.90;;;;;;5054297;28;20040;-75
2022/05/05 06:47:08;;;;;;;30.73;17.92;;;17.50;99.90;;;;;;5054590;28;20025;-75
2022/05/05 06:49:35;;;;;;;31.25;18.50;;;17.70;99.90;;;;;;5053542;28;20387;-75
2022/05/05 06:52:00;;;;;;;38.45;18.10;;;17.90;99.90;;;;;;5054164;28;20436;-75
2022/05/05 06:54:27;;;;;;;33.35;19.05;;;18.00;99.90;;;;;;5053798;28;20031;-76
2022/05/05 06:56:54;;;;;;;37.50;18.10;;;18.10;99.90;;;;;;5054158;28;20063;-75
2022/05/05 06:59:19;;;;;;;29.25;17.95;;;18.30;99.90;;;;;;5054259;28;20025;-75
2022/05/05 07:01:54;;;;;;;29.05;15.70;;;18.50;99.90;;;;;;5053914;28;20028;-75
2022/05/05 07:07:06;;;;;;;32.80;18.50;;;18.80;97.20;;;;;;5053802;28;20028;-75
2022/05/05 07:12:17;;;;;;;33.60;15.65;;;19.30;96.10;;;;;;5053997;28;20024;-75
2022/05/05 07:14:46;;;;;;;16.98;8.65;;;19.60;94.20;;;;;;5053619;28;20024;-75
2022/05/05 07:17:12;;;;;;;12.93;9.40;;;19.70;80.30;;;;;;5053651;28;20017;-75
2022/05/05 07:19:39;;;;;;;21.83;11.27;;;19.90;73.00;;;;;;5053881;28;20467;-74
2022/05/05 07:22:05;;;;;;;25.48;12.50;;;20.00;78.10;;;;;;5053814;28;20025;-75
2022/05/05 07:24:31;;;;;;;25.92;12.40;;;20.30;79.90;;;;;;5053507;28;20108;-75
2022/05/05 07:26:57;;;;;;;32.10;12.32;;;20.50;83.00;;;;;;5053663;28;20471;-74
2022/05/05 07:29:23;;;;;;;22.45;11.15;;;20.70;79.90;;;;;;5053728;28;20021;-75
2022/05/05 07:31:49;;;;;;;19.55;11.77;;;20.60;75.10;;;;;;5053819;28;20024;-74
2022/05/05 07:34:15;;;;;;;18.48;12.02;;;20.60;70.30;;;;;;5053303;28;20104;-75
2022/05/05 07:36:41;;;;;;;21.00;11.25;;;20.70;75.80;;;;;;5053236;28;20025;-75
2022/05/05 07:39:07;;;;;;;16.40;12.57;;;20.80;72.60;;;;;;5053404;28;20021;-75
2022/05/05 07:41:33;;;;;;;27.98;12.38;;;20.90;74.10;;;;;;5053703;28;20049;-75
2022/05/05 07:44:00;;;;;;;20.92;12.38;;;21.10;73.30;;;;;;5051844;28;20029;-75
2022/05/05 07:46:26;;;;;;;17.00;11.23;;;21.10;68.40;;;;;;5052706;28;20028;-75
2022/05/05 07:48:52;;;;;;;21.08;12.43;;;21.10;70.00;;;;;;5053159;28;20028;-75
2022/05/05 07:51:19;;;;;;;17.80;12.07;;;21.30;71.20;;;;;;5053085;28;20083;-76
2022/05/05 07:54:34;;;;;;;22.95;13.25;;;21.50;69.80;;;;;;5053790;28;20032;-74
2022/05/05 07:56:30;;;;;;;18.90;12.07;;;21.80;71.20;;;;;;5053089;28;20075;-75
2022/05/05 07:58:56;;;;;;;27.08;13.52;;;21.90;67.80;;;;;;5053285;28;20021;-74
2022/05/05 08:01:22;;;;;;;21.95;13.10;;;22.00;66.00;;;;;;5054899;28;20020;-75
2022/05/05 08:03:48;;;;;;;25.38;12.60;;;22.30;66.00;;;;;;5057495;28;20074;-75
2022/05/05 08:06:13;;;;;;;21.50;12.20;;;22.60;64.30;;;;;;5057008;28;20029;-74
2022/05/05 08:08:39;;;;;;;24.33;13.95;;;22.60;64.30;;;;;;5057276;28;20025;-75
2022/05/05 08:11:05;;;;;;;27.58;15.20;;;22.80;62.80;;;;;;5057041;28;20021;-75
2022/05/05 08:13:34;;;;;;;29.88;17.75;;;22.80;61.40;;;;;;5056750;28;20017;-75
2022/05/05 08:16:00;;;;;;;38.05;20.50;;;22.90;65.10;;;;;;5057063;28;20040;-76
2022/05/05 08:18:26;;;;;;;41.40;21.35;;;;;;;;;;5055744;28;20024;-75
2022/05/05 08:20:52;;;;;;;34.33;19.17;;;23.60;67.60;;;;;;5056976;28;20028;-75
2022/05/05 08:23:18;;;;;;;31.55;20.83;;;23.60;64.00;;;;;;5056851;28;20364;-75
2022/05/05 08:28:28;;;;;;;48.47;22.17;;;23.70;65.60;;;;;;5056697;28;20546;-74
2022/05/05 08:30:55;;;;;;;41.70;21.48;;;23.80;62.50;;;;;;5056960;28;20052;-75
2022/05/05 08:33:20;;;;;;;41.30;20.77;;;23.80;61.80;;;;;;5056891;28;20099;-75
2022/05/05 08:35:47;;;;;;;40.97;20.70;;;;;;;;;;5056483;28;20155;-75
2022/05/05 08:38:14;;;;;;;38.45;21.52;;;;;;;;;;5056707;28;20021;-75
2022/05/05 08:40:41;;;;;;;32.78;19.27;;;;;;;;;;5056062;28;20047;-75
2022/05/05 08:43:08;;;;;;;34.72;19.45;;;;;;;;;;5056270;28;20017;-75
2022/05/05 08:45:35;;;;;;;29.33;18.80;;;;;;;;;;5056756;28;20064;-75
2022/05/05 08:48:06;;;;;;;32.72;18.60;;;;;;;;;;5056000;28;20079;-75
2022/05/05 08:50:33;;;;;;;28.77;16.85;;;;;;;;;;5056118;28;20013;-75
2022/05/05 08:52:59;;;;;;;31.90;16.27;;;;;;;;;;5056011;28;20044;-75
2022/05/05 08:55:26;;;;;;;32.28;16.42;;;;;;;;;;5055453;28;20017;-75
2022/05/05 08:57:52;;;;;;;30.02;15.30;;;;;;;;;;5056068;28;20147;-74
2022/05/05 09:00:19;;;;;;;24.30;15.73;;;;;;;;;;5056066;28;20009;-76
2022/05/05 09:02:45;;;;;;;29.60;16.05;;;;;;;;;;5056028;28;20021;-75
2022/05/05 09:05:12;;;;;;;26.92;15.27;;;;;;;;;;5056070;28;20021;-75
2022/05/05 09:07:52;;;;;;;31.20;15.70;;;;;;;;;;5056023;28;20056;-75
2022/05/05 09:10:19;;;;;;;21.73;15.90;;;;;;;;;;5055931;28;20028;-75
2022/05/05 09:13:01;;;;;;;34.03;16.88;;;;;;;;;;5055383;28;20448;-75
2022/05/05 09:15:32;;;;;;;28.35;17.15;;;;;;;;;;5054541;28;20032;-75
2022/05/05 09:18:14;;;;;;;28.23;15.13;;;;;;;;;;5054981;28;20084;-75
2022/05/05 09:20:41;;;;;;;24.17;13.50;;;;;;;;;;5055485;28;20395;-75
2022/05/05 09:23:07;;;;;;;26.50;14.20;;;;;;;;;;5055720;28;20436;-74
2022/05/05 09:25:44;;;;;;;26.50;13.63;;;;;;;;;;5055777;28;20021;-75
2022/05/05 09:28:18;;;;;;;23.48;13.55;;;;;;;;;;5055568;28;20029;-76
2022/05/05 09:31:07;;;;;;;22.40;12.93;;;;;;;;;;5055632;28;20099;-75
2022/05/05 09:33:36;;;;;;;20.80;12.93;;;;;;;;;;5052429;28;20028;-75
2022/05/05 09:36:06;;;;;;;15.90;11.68;;;;;;;;;;5055450;28;20376;-75
2022/05/05 09:38:51;;;;;;;23.80;12.35;;;;;;;;;;5055236;28;20134;-75
2022/05/05 09:41:32;;;;;;;15.23;10.25;;;;;;;;;;5055714;28;20098;-75
2022/05/05 09:44:00;;;;;;;21.27;10.68;;;;;;;;;;5055423;28;20013;-76
2022/05/05 09:46:26;;;;;;;15.25;9.50;;;;;;;;;;5055471;28;20025;-76
2022/05/05 09:49:12;;;;;;;10.95;8.27;;;;;;;;;;5055471;28;20021;-75
2022/05/05 09:51:43;;;;;;;10.75;8.75;;;;;;;;;;5055789;28;20447;-75
2022/05/05 09:59:47;;;;;;;10.07;8.95;;;;;;;;;;5055157;28;20028;-75
2022/05/05 10:04:00;;;;;;;13.95;9.50;;;;;;;;;;5054923;28;20040;-75
2022/05/05 10:05:13;;;;;;;11.88;8.60;;;;;;;;;;5054396;28;20084;-75
2022/05/05 10:07:44;;;;;;;12.82;8.07;;;;;;;;;;5054671;28;20032;-75
2022/05/05 10:10:11;;;;;;;10.80;8.57;;;;;;;;;;5055159;28;20096;-76
2022/05/05 10:12:37;;;;;;;10.43;8.38;;;;;;;;;;5054926;28;20020;-74
2022/05/05 10:15:04;;;;;;;9.32;7.85;;;;;;;;;;5054841;28;20032;-75
2022/05/05 10:17:31;;;;;;;11.60;7.72;;;;;;;;;;5054635;28;20508;-75
2022/05/05 10:19:57;;;;;;;10.63;8.52;;;;;;;;;;5054838;28;20043;-75
2022/05/05 10:22:34;;;;;;;13.10;8.10;;;;;;;;;;5054378;28;20016;-75
2022/05/05 10:25:06;;;;;;;9.70;7.93;;;;;;;;;;5054058;28;20024;-75
2022/05/05 10:27:32;;;;;;;10.00;8.50;;;;;;;;;;5054733;28;20107;-75
2022/05/05 10:30:01;;;;;;;10.40;8.55;;;;;;;;;;5054633;28;20093;-75
2022/05/05 10:32:28;;;;;;;10.73;7.15;;;;;;;;;;5054434;28;20013;-75
2022/05/05 10:35:12;;;;;;;8.30;7.30;;;;;;;;;;5054178;28;20021;-76
2022/05/05 10:37:39;;;;;;;10.65;7.93;;;;;;;;;;5054535;28;20017;-76
2022/05/05 10:40:09;;;;;;;7.78;7.00;;;;;;;;;;5052846;28;20379;-75
2022/05/05 10:42:40;;;;;;;15.68;7.30;;;;;;;;;;5053079;28;20017;-76
2022/05/05 10:45:16;;;;;;;13.70;7.07;;;;;;;;;;5054678;28;20024;-76
2022/05/05 10:47:52;;;;;;;7.95;6.85;;;;;;;;;;5054048;28;20513;-74
2022/05/05 10:50:39;;;;;;;11.45;7.72;;;;;;;;;;5054218;28;20020;-76
2022/05/05 10:53:05;;;;;;;8.27;7.57;;;;;;;;;;5054016;28;20142;-75
2022/05/05 10:55:40;;;;;;;7.85;7.15;;;;;;;;;;5053808;28;20025;-75
2022/05/05 10:58:09;;;;;;;10.23;6.95;;;;;;;;;;5052868;28;20016;-75
2022/05/05 11:00:42;;;;;;;8.43;6.97;;;;;;;;;;5053218;28;20040;-76
2022/05/05 11:03:09;;;;;;;7.35;6.78;;;;;;;;;;5053923;28;20025;-76
2022/05/05 11:05:36;;;;;;;8.05;7.07;;;;;;;;;;5053987;28;20048;-76
2022/05/05 11:08:08;;;;;;;8.80;6.57;;;;;;;;;;5052517;28;20021;-76
2022/05/05 11:13:43;;;;;;;7.63;5.82;;;;;;;;;;5051544;28;20559;-77
2022/05/05 11:22:09;;;;;;;18.73;5.65;;;;;;;;;;5053083;28;20411;-76
2022/05/05 11:24:36;;;;;;;10.35;7.38;;;;;;;;;;5052998;28;20106;-77
2022/05/05 11:27:02;;;;;;;9.57;6.82;;;;;;;;;;5052776;28;20379;-77
2022/05/05 11:29:29;;;;;;;17.75;5.10;;;;;;;;;;5052754;28;20021;-77
2022/05/05 11:31:59;;;;;;;9.82;5.88;;;;;;;;;;5053012;28;20100;-78
2022/05/05 11:34:36;;;;;;;14.15;7.00;;;;;;;;;;5052598;28;20017;-76
2022/05/05 11:37:02;;;;;;;6.70;6.10;;;;;;;;;;5056012;28;20017;-77
2022/05/05 11:39:29;;;;;;;8.45;6.85;;;;;;;;;;5055659;28;20361;-78
2022/05/05 11:42:02;;;;;;;7.70;5.97;;;;;;;;;;5056589;28;20476;-77
2022/05/05 11:44:28;;;;;;;9.10;6.22;;;;;;;;;;5055580;28;20027;-77
2022/05/05 11:46:58;;;;;;;10.13;7.00;;;;;;;;;;5056842;28;20020;-77
2022/05/05 11:49:25;;;;;;;13.07;6.50;;;;;;;;;;5056907;28;20020;-78
2022/05/05 11:51:51;;;;;;;8.63;6.75;;;;;;;;;;5056531;28;20053;-76
2022/05/05 11:54:24;;;;;;;9.27;7.18;;;;;;;;;;5057070;28;20017;-77
2022/05/05 11:56:53;;;;;;;11.60;6.50;;;;;;;;;;5057117;28;20013;-75
2022/05/05 12:02:10;;;;;;;;;;;;;;;;;;5057154;28;20107;-78
2022/05/05 12:04:41;;;;;;;8.10;7.30;;;;;;;;;;5055308;28;19905;-77
2022/05/05 12:07:09;;;;;;;8.73;6.57;;;;;;;;;;5057018;28;20017;-77
2022/05/05 12:09:36;;;;;;;7.53;6.80;;;;;;;;;;5056290;28;20848;-77
2022/05/05 12:12:16;;;;;;;7.30;6.70;;;;;;;;;;5056621;28;20102;-76
2022/05/05 12:14:43;;;;;;;10.75;7.05;;;;;;;;;;5056342;28;20530;-78
2022/05/05 12:17:13;;;;;;;9.55;7.28;;;;;;;;;;5055978;28;20100;-78
2022/05/05 12:19:52;;;;;;;162.68;106.20;;;;;;;;;;5056406;28;20048;-77
2022/05/05 12:22:34;;;;;;;22.85;16.20;;;;;;;;;;5056736;28;20029;-77
2022/05/05 12:25:05;;;;;;;337.73;233.70;;;;;;;;;;5056134;28;20021;-77
2022/05/05 12:27:31;;;;;;;26.40;21.27;;;;;;;;;;5056107;28;20063;-76
2022/05/05 12:29:58;;;;;;;13.13;8.55;;;;;;;;;;5056376;28;20463;-78
2022/05/05 12:32:24;;;;;;;10.60;6.38;;;;;;;;;;5056226;28;20071;-77
2022/05/05 12:35:00;;;;;;;7.07;6.18;;;;;;;;;;5056411;28;20025;-76
2022/05/05 12:37:26;;;;;;;7.10;5.85;;;;;;;;;;5054534;28;20075;-77
2022/05/05 12:39:55;;;;;;;14.50;9.63;;;;;;;;;;5054458;28;20025;-78
2022/05/05 12:42:22;;;;;;;10.73;8.05;;;;;;;;;;5050263;28;20067;-77
2022/05/05 12:44:51;;;;;;;8.32;7.20;;;;;;;;;;5045350;28;20067;-77
2022/05/05 12:47:24;;;;;;;15.93;10.95;;;;;;;;;;5043567;28;20017;-75
2022/05/05 12:49:50;;;;;;;8.82;6.53;;;;;;;;;;5052445;28;20067;-77
2022/05/05 13:00:43;;;;;;;9.48;6.72;;;;;;;;;;5055446;28;20035;-76
2022/05/05 13:03:09;;;;;;;42.78;32.22;;;;;;;;;;5055835;28;20021;-76
2022/05/05 13:05:36;;;;;;;31.15;21.92;;;;;;;;;;5049250;28;20159;-75
2022/05/05 13:08:02;;;;;;;11.32;8.73;;;;;;;;;;5045442;28;20031;-76
2022/05/05 13:10:29;;;;;;;21.52;19.42;;;;;;;;;;5041084;28;20120;-77
2022/05/05 13:12:55;;;;;;;5.95;5.18;;;;;;;;;;5041400;28;20096;-77
2022/05/05 13:15:21;;;;;;;13.25;5.57;;;;;;;;;;5044045;28;20021;-78
2022/05/05 13:17:47;;;;;;;10.65;6.60;;;;;;;;;;5045422;28;20448;-77
2022/05/05 13:20:13;;;;;;;9.85;7.82;;;;;;;;;;5043673;28;20017;-76
2022/05/05 13:22:39;;;;;;;9.35;5.68;;;;;;;;;;5043870;28;20124;-76
2022/05/05 13:25:06;;;;;;;9.38;6.57;;;;;;;;;;5045753;28;20459;-77
2022/05/05 13:27:32;;;;;;;7.90;7.13;;;;;;;;;;5043675;28;20108;-76
2022/05/05 13:29:58;;;;;;;7.43;6.72;;;;;;;;;;5044263;28;20020;-76
2022/05/05 13:32:24;;;;;;;12.30;6.68;;;;;;;;;;5044042;28;20466;-76
2022/05/05 13:34:52;;;;;;;8.82;6.47;;;;;;;;;;5043154;28;20036;-76
2022/05/05 13:37:20;;;;;;;7.80;6.57;;;;;;;;;;5043817;28;20036;-77
2022/05/05 13:39:47;;;;;;;8.45;7.03;;;;;;;;;;5045076;28;20095;-78
2022/05/05 13:42:13;;;;;;;9.43;7.00;;;;;;;;;;5043789;28;20024;-76
2022/05/05 13:44:39;;;;;;;10.70;6.20;;;;;;;;;;5043761;28;20033;-77
2022/05/05 13:47:05;;;;;;;7.05;6.45;;;;;;;;;;5045175;28;20021;-77
2022/05/05 13:49:31;;;;;;;9.45;6.40;;;;;;;;;;5043218;28;20017;-78
2022/05/05 13:51:58;;;;;;;8.82;7.13;;;;;;;;;;5042618;28;20070;-78
2022/05/05 13:54:24;;;;;;;24.75;7.10;;;;;;;;;;5044753;28;20436;-77
2022/05/05 13:56:50;;;;;;;9.23;6.40;;;;;;;;;;5043027;28;20456;-78
2022/05/05 13:59:16;;;;;;;8.65;6.30;;;;;;;;;;5043377;28;20024;-78